Time;durP1;ratioP1;P1;durP2;ratioP2;P2;SDS_P1;SDS_P2;PMS_P1;PMS_P2;Temp;Humidity;BMP_temperature;BMP_pressure;BME280_temperature;BME280_humidity;BME280_pressure;Samples;Min_cycle;Max_cycle;Signal;HPM_P1;HPM_P2
2023/03/03 00:00:45;;;;;;;16.20;12.18;;;;;;;18.99;45.21;99783.22;4937648;29;20019;-65
2023/03/03 00:03:14;;;;;;;18.23;12.00;;;;;;;18.99;45.00;99782.38;4954652;29;20026;-66
2023/03/03 00:05:41;;;;;;;15.30;11.95;;;;;;;18.98;45.01;99786.81;4954579;29;20027;-66
2023/03/03 00:08:07;;;;;;;14.55;12.07;;;;;;;18.99;45.06;99780.56;4954748;29;20050;-65
2023/03/03 00:10:33;;;;;;;16.13;11.43;;;;;;;18.94;45.32;99774.69;4954208;29;20031;-66
2023/03/03 00:12:59;;;;;;;14.00;11.60;;;;;;;18.94;45.17;99779.97;4954684;29;20038;-66
2023/03/03 00:15:25;;;;;;;16.40;11.95;;;;;;;18.97;45.19;99784.22;4954511;29;20035;-66
2023/03/03 00:17:51;;;;;;;15.93;11.60;;;;;;;18.95;45.27;99781.69;4954683;29;20058;-65
2023/03/03 00:20:36;;;;;;;14.60;11.98;;;;;;;18.96;45.09;99778.09;4954640;29;20035;-65
2023/03/03 00:23:08;;;;;;;18.02;11.95;;;;;;;18.94;45.13;99774.69;4954612;29;20027;-66
2023/03/03 00:25:33;;;;;;;16.48;12.13;;;;;;;18.94;45.24;99769.38;4953089;29;20034;-66
2023/03/03 00:28:17;;;;;;;14.95;11.00;;;;;;;18.93;45.28;99770.28;4931111;29;20019;-67
2023/03/03 00:30:43;;;;;;;16.50;11.38;;;;;;;18.91;45.22;99769.53;4934934;29;20039;-65
2023/03/03 00:33:33;;;;;;;15.85;11.63;;;;;;;18.90;45.47;99773.94;4931509;29;20110;-65
2023/03/03 00:36:14;;;;;;;16.67;10.40;;;;;;;18.88;45.46;99770.53;4925704;29;20063;-66
2023/03/03 00:38:39;;;;;;;14.30;11.27;;;;;;;18.87;45.34;99770.59;4931522;29;20046;-65
2023/03/03 00:41:26;;;;;;;13.43;10.10;;;;;;;18.86;45.23;99767.09;4934122;29;20031;-65
2023/03/03 00:43:52;;;;;;;14.05;10.45;;;;;;;18.87;45.01;99767.94;4934464;29;20066;-65
2023/03/03 00:46:22;;;;;;;13.40;10.82;;;;;;;18.87;45.16;99767.94;4935023;29;20508;-67
2023/03/03 00:48:49;;;;;;;18.67;11.20;;;;;;;18.84;45.23;99765.47;4934918;29;20484;-66
2023/03/03 00:51:27;;;;;;;13.20;11.15;;;;;;;18.84;45.38;99768.09;4934797;29;20428;-68
2023/03/03 00:53:55;;;;;;;14.85;10.95;;;;;;;18.84;45.23;99762.81;4934719;29;20123;-67
2023/03/03 00:56:21;;;;;;;12.63;10.57;;;;;;;18.83;45.16;99761.09;4951257;28;20027;-67
2023/03/03 00:58:47;;;;;;;12.77;10.93;;;;;;;18.81;45.27;99763.81;4973036;28;20498;-66
2023/03/03 01:01:13;;;;;;;12.75;10.85;;;;;;;18.81;45.33;99770.88;4955726;28;20134;-66
2023/03/03 01:03:39;;;;;;;14.70;10.98;;;;;;;18.78;45.15;99766.59;4973322;28;20038;-64
2023/03/03 01:06:05;;;;;;;13.35;10.55;;;;;;;18.78;45.50;99769.22;4973125;28;20034;-67
2023/03/03 01:08:30;;;;;;;12.65;10.70;;;;;;;18.76;45.49;99771.09;4972488;28;20027;-67
2023/03/03 01:11:20;;;;;;;14.07;10.20;;;;;;;18.77;45.17;99763.09;4973217;28;20110;-65
2023/03/03 01:13:48;;;;;;;12.82;10.35;;;;;;;18.77;45.40;99757.81;4963528;28;20122;-65
2023/03/03 01:16:14;;;;;;;13.82;9.95;;;;;;;18.73;45.58;99766.81;4973073;28;20035;-65
2023/03/03 01:18:40;;;;;;;11.82;9.82;;;;;;;18.72;45.65;99758.94;4955592;28;20039;-67
2023/03/03 01:21:07;;;;;;;14.15;10.50;;;;;;;18.74;45.49;99760.59;4973030;28;20033;-66
2023/03/03 01:23:33;;;;;;;15.02;10.35;;;;;;;18.71;45.52;99767.81;4972504;28;20070;-68
2023/03/03 01:25:59;;;;;;;11.85;10.13;;;;;;;18.74;45.29;99760.59;4973000;28;20031;-65
2023/03/03 01:28:25;;;;;;;12.93;10.02;;;;;;;18.72;45.26;99758.94;4972600;28;20119;-66
2023/03/03 01:30:50;;;;;;;11.98;10.05;;;;;;;18.70;45.50;99751.06;4973113;28;20395;-65
2023/03/03 01:33:16;;;;;;;10.73;9.45;;;;;;;18.70;45.45;99750.25;4973196;28;20030;-66
2023/03/03 01:35:48;;;;;;;11.82;9.82;;;;;;;18.68;45.46;99752.94;4972860;28;20436;-65
2023/03/03 01:38:14;;;;;;;10.90;9.70;;;;;;;18.69;45.65;99748.53;4972716;28;20102;-66
2023/03/03 01:40:40;;;;;;;11.30;9.55;;;;;;;18.67;45.39;99751.25;4972877;28;20031;-65
2023/03/03 01:43:06;;;;;;;10.85;9.18;;;;;;;18.67;45.36;99753.88;4973010;28;20506;-65
2023/03/03 01:45:47;;;;;;;10.35;9.27;;;;;;;18.64;45.75;99743.44;4948280;28;20071;-65
2023/03/03 01:48:15;;;;;;;12.07;9.63;;;;;;;18.65;45.63;99751.31;4934550;29;20118;-65
2023/03/03 01:50:47;;;;;;;13.48;9.57;;;;;;;18.62;45.54;99753.22;4917468;29;20044;-66
2023/03/03 01:53:20;;;;;;;12.27;9.50;;;;;;;18.65;45.75;99748.66;4938619;29;20161;-65
2023/03/03 01:55:48;;;;;;;13.40;9.90;;;;;;;18.67;45.78;99742.44;4957028;28;20023;-66
2023/03/03 01:58:28;;;;;;;11.60;8.80;;;;;;;18.64;45.72;99743.44;4952927;28;20091;-66
2023/03/03 02:01:04;;;;;;;12.07;9.57;;;;;;;18.61;45.71;99740.97;4928979;29;20384;-66
2023/03/03 02:03:30;;;;;;;10.50;8.75;;;;;;;18.61;45.93;99746.25;4933854;29;20400;-66
2023/03/03 02:06:02;;;;;;;11.55;8.70;;;;;;;18.63;45.52;99750.53;4935238;29;20032;-66
2023/03/03 02:08:35;;;;;;;11.50;9.30;;;;;;;18.61;45.84;99743.59;4932000;29;20043;-65
2023/03/03 02:11:02;;;;;;;10.63;7.85;;;;;;;18.62;45.81;99740.03;4935487;29;20043;-66
2023/03/03 02:13:28;;;;;;;13.32;9.63;;;;;;;18.59;45.53;99741.03;4936587;29;20035;-66
2023/03/03 02:15:55;;;;;;;12.88;8.60;;;;;;;18.59;45.53;99737.53;4936468;29;20032;-66
2023/03/03 02:18:21;;;;;;;12.25;9.05;;;;;;;18.60;45.74;99731.31;4937126;29;20031;-67
2023/03/03 02:20:57;;;;;;;12.45;8.77;;;;;;;18.59;45.81;99729.59;4937000;29;20027;-66
2023/03/03 02:23:22;;;;;;;11.60;9.20;;;;;;;18.56;45.50;99732.38;4937599;29;20028;-67
2023/03/03 02:25:56;;;;;;;13.95;9.10;;;;;;;18.55;45.56;99730.66;4937414;29;20030;-67
2023/03/03 02:28:25;;;;;;;10.52;8.40;;;;;;;18.52;45.67;99731.66;4920227;29;20038;-66
2023/03/03 02:30:54;;;;;;;10.45;8.27;;;;;;;18.54;45.48;99726.31;4937346;29;20508;-66
2023/03/03 02:33:20;;;;;;;10.40;8.38;;;;;;;18.52;45.63;99721.97;4937121;29;20032;-68
2023/03/03 02:35:45;;;;;;;10.90;8.15;;;;;;;18.53;45.81;99725.44;4936991;29;20028;-65
2023/03/03 02:38:18;;;;;;;10.90;9.05;;;;;;;18.49;45.71;99716.81;4937308;29;20055;-66
2023/03/03 02:40:55;;;;;;;9.80;8.45;;;;;;;18.52;45.65;99721.97;4937365;29;20038;-66
2023/03/03 02:43:26;;;;;;;9.63;8.40;;;;;;;18.49;45.71;99724.75;4937026;29;20516;-67
2023/03/03 02:45:51;;;;;;;10.63;8.48;;;;;;;18.51;45.63;99720.22;4937230;29;20031;-65
2023/03/03 02:48:17;;;;;;;9.55;8.30;;;;;;;18.49;45.88;99716.81;4936974;29;20027;-66
2023/03/03 02:50:42;;;;;;;9.77;8.07;;;;;;;18.47;45.87;99718.69;4937032;29;20500;-67
2023/03/03 02:53:07;;;;;;;10.68;8.25;;;;;;;18.49;45.54;99716.81;4937438;29;20079;-66
2023/03/03 02:55:33;;;;;;;10.55;8.48;;;;;;;18.46;45.49;99722.22;4940157;28;20024;-67
2023/03/03 02:57:58;;;;;;;9.90;8.35;;;;;;;18.47;45.81;99713.38;4975449;28;20097;-66
2023/03/03 03:00:24;;;;;;;9.65;8.32;;;;;;;18.43;45.62;99714.47;4975261;28;20491;-67
2023/03/03 03:02:49;;;;;;;9.32;8.13;;;;;;;18.44;45.80;99707.41;4975217;28;20019;-66
2023/03/03 03:05:15;;;;;;;9.15;7.53;;;;;;;18.45;45.77;99715.22;4946329;29;20035;-67
2023/03/03 03:07:40;;;;;;;10.38;8.30;;;;;;;18.42;45.90;99710.09;4936567;29;20082;-66
2023/03/03 03:10:06;;;;;;;12.23;8.45;;;;;;;18.41;45.63;99707.53;4936485;29;20034;-66
2023/03/03 03:12:31;;;;;;;10.75;8.77;;;;;;;18.41;45.71;99713.69;4935694;29;20036;-66
2023/03/03 03:14:57;;;;;;;10.48;8.18;;;;;;;18.39;45.83;99712.88;4936316;29;20028;-66
2023/03/03 03:17:22;;;;;;;9.95;8.50;;;;;;;18.41;45.60;99726.03;4936495;29;20023;-67
2023/03/03 03:19:47;;;;;;;10.20;8.85;;;;;;;18.40;45.57;99722.50;4936080;29;20039;-66
2023/03/03 03:22:13;;;;;;;9.85;8.13;;;;;;;18.39;45.56;99710.22;4936214;29;20032;-66
2023/03/03 03:24:38;;;;;;;10.40;8.43;;;;;;;18.38;45.61;99713.81;4936584;29;20020;-66
2023/03/03 03:27:04;;;;;;;9.18;7.35;;;;;;;18.37;45.54;99712.94;4936290;29;20105;-66
2023/03/03 03:29:29;;;;;;;10.95;8.52;;;;;;;18.34;45.75;99722.78;4936039;29;20024;-65
2023/03/03 03:31:55;;;;;;;10.82;8.10;;;;;;;18.34;45.58;99718.38;4936283;29;20031;-66
2023/03/03 03:34:20;;;;;;;11.82;8.70;;;;;;;18.34;45.43;99717.50;4935674;29;20027;-66
2023/03/03 03:36:45;;;;;;;11.82;8.60;;;;;;;18.36;45.65;99713.88;4936048;29;20035;-66
2023/03/03 03:39:11;;;;;;;9.57;7.72;;;;;;;18.31;45.75;99713.22;4936091;29;20031;-65
2023/03/03 03:41:36;;;;;;;10.25;8.40;;;;;;;18.31;45.51;99707.09;4935806;29;20023;-66
2023/03/03 03:44:02;;;;;;;9.63;8.15;;;;;;;18.30;45.61;99710.66;4936004;29;20028;-66
2023/03/03 03:46:27;;;;;;;10.20;8.38;;;;;;;18.27;45.68;99708.16;4935843;29;20476;-66
2023/03/03 03:48:53;;;;;;;9.52;7.60;;;;;;;18.28;45.92;99718.66;4935470;29;20423;-65
2023/03/03 03:51:18;;;;;;;9.40;8.23;;;;;;;18.29;45.92;99711.56;4935647;29;20089;-67
2023/03/03 03:53:44;;;;;;;10.70;7.90;;;;;;;18.28;45.77;99717.78;4936000;29;20224;-66
2023/03/03 03:56:09;;;;;;;10.02;8.30;;;;;;;18.25;45.44;99714.38;4954778;29;20027;-66
2023/03/03 03:58:35;;;;;;;10.05;8.57;;;;;;;18.24;45.58;99719.72;4955022;29;20028;-66
2023/03/03 04:01:05;;;;;;;10.30;8.32;;;;;;;18.22;45.61;99714.50;4954879;29;20391;-67
2023/03/03 04:03:31;;;;;;;11.18;8.07;;;;;;;18.24;45.62;99715.31;4954308;29;20031;-66
2023/03/03 04:05:56;;;;;;;10.40;8.10;;;;;;;18.23;45.52;99716.22;4954849;29;20056;-66
2023/03/03 04:08:21;;;;;;;11.98;8.15;;;;;;;18.25;45.73;99719.66;4954595;29;20023;-66
2023/03/03 04:10:47;;;;;;;11.30;8.70;;;;;;;18.21;45.62;99718.06;4954841;29;20023;-66
2023/03/03 04:13:12;;;;;;;11.38;8.00;;;;;;;18.22;45.53;99722.41;4954693;29;20420;-66
2023/03/03 04:15:38;;;;;;;10.27;8.15;;;;;;;18.21;45.71;99730.44;4954648;29;20037;-66
2023/03/03 04:18:03;;;;;;;9.63;7.80;;;;;;;18.20;45.54;99726.94;4936841;29;20031;-65
2023/03/03 04:20:29;;;;;;;11.18;9.13;;;;;;;18.15;45.64;99728.91;4954427;29;20035;-66
2023/03/03 04:22:56;;;;;;;9.95;8.32;;;;;;;18.15;45.65;99728.06;4954390;29;20082;-67
2023/03/03 04:25:21;;;;;;;9.43;8.15;;;;;;;18.16;45.70;99727.13;4954289;29;20035;-66
2023/03/03 04:27:47;;;;;;;10.82;8.63;;;;;;;18.14;45.70;99727.19;4953480;28;20027;-67
2023/03/03 04:30:14;;;;;;;10.05;8.23;;;;;;;18.14;45.86;99727.19;4954208;29;20062;-67
2023/03/03 04:32:40;;;;;;;8.93;7.53;;;;;;;18.14;45.77;99721.91;4953920;29;20034;-66
2023/03/03 04:35:07;;;;;;;10.52;8.00;;;;;;;18.13;45.91;99725.50;4936964;29;20027;-67
2023/03/03 04:37:32;;;;;;;9.57;8.57;;;;;;;18.13;45.59;99733.41;4954116;29;20384;-66
2023/03/03 04:39:58;;;;;;;9.60;8.43;;;;;;;18.14;45.42;99728.97;4954280;29;20082;-66
2023/03/03 04:42:23;;;;;;;9.80;8.40;;;;;;;18.12;45.70;99729.06;4954013;29;20031;-66
2023/03/03 04:44:49;;;;;;;9.63;7.63;;;;;;;18.11;45.79;99724.69;4953964;29;20027;-67
2023/03/03 04:47:14;;;;;;;10.15;8.60;;;;;;;18.09;45.49;99737.09;4953674;29;20078;-67
2023/03/03 04:49:39;;;;;;;10.77;8.43;;;;;;;18.11;45.81;99722.91;4953889;29;20094;-66
2023/03/03 04:52:05;;;;;;;9.52;8.20;;;;;;;18.10;45.50;99725.63;4954210;29;20027;-66
2023/03/03 04:54:30;;;;;;;9.00;7.78;;;;;;;18.06;45.71;99729.34;4953891;29;20372;-67
2023/03/03 04:56:56;;;;;;;8.98;7.80;;;;;;;18.08;45.69;99736.28;4953904;29;20019;-66
2023/03/03 04:59:21;;;;;;;9.50;7.97;;;;;;;18.02;45.59;99727.72;4954101;29;20051;-66
2023/03/03 05:01:47;;;;;;;9.23;8.10;;;;;;;18.06;45.58;99732.81;4953720;29;20062;-66
2023/03/03 05:04:13;;;;;;;11.25;8.93;;;;;;;18.01;45.54;99726.84;4953935;29;20027;-65
2023/03/03 05:06:39;;;;;;;10.63;8.65;;;;;;;18.06;45.69;99731.97;4953968;29;20085;-66
2023/03/03 05:09:05;;;;;;;9.15;7.55;;;;;;;18.05;45.83;99738.13;4953869;29;20514;-66
2023/03/03 05:11:31;;;;;;;9.80;8.27;;;;;;;18.02;45.54;99727.72;4953825;29;20023;-65
2023/03/03 05:13:56;;;;;;;9.02;7.40;;;;;;;18.04;45.53;99723.22;4953781;29;20023;-66
2023/03/03 05:16:22;;;;;;;10.02;8.15;;;;;;;18.01;45.75;99728.66;4953603;29;20031;-67
2023/03/03 05:18:47;;;;;;;9.90;8.23;;;;;;;18.01;45.73;99731.28;4953814;29;20020;-66
2023/03/03 05:21:13;;;;;;;9.25;8.25;;;;;;;18.00;45.70;99729.59;4954008;29;20082;-66
2023/03/03 05:23:38;;;;;;;10.70;8.10;;;;;;;18.01;45.62;99733.94;4953733;29;20051;-66
2023/03/03 05:26:04;;;;;;;10.48;7.80;;;;;;;17.99;45.60;99734.00;4953921;29;20046;-67
2023/03/03 05:28:29;;;;;;;9.60;8.45;;;;;;;17.96;45.78;99732.34;4953675;29;20033;-66
2023/03/03 05:30:54;;;;;;;10.00;8.90;;;;;;;17.96;45.63;99739.38;4953281;29;20019;-67
2023/03/03 05:33:20;;;;;;;9.38;7.97;;;;;;;17.94;45.52;99739.47;4953628;29;20034;-65
2023/03/03 05:35:45;;;;;;;9.82;7.78;;;;;;;17.95;45.73;99740.31;4936097;29;20035;-66
2023/03/03 05:38:11;;;;;;;9.23;8.07;;;;;;;17.92;45.46;99745.75;4954390;28;20030;-65
2023/03/03 05:40:37;;;;;;;9.57;8.50;;;;;;;17.92;45.67;99743.94;4957488;29;20034;-66
2023/03/03 05:43:03;;;;;;;9.15;8.02;;;;;;;17.95;45.75;99732.41;4957229;29;20031;-66
2023/03/03 05:45:28;;;;;;;10.18;8.23;;;;;;;17.94;45.85;99741.25;4939759;29;20501;-66
2023/03/03 05:47:54;;;;;;;9.98;7.80;;;;;;;17.92;45.79;99738.69;4957249;29;20493;-67
2023/03/03 05:50:20;;;;;;;10.73;8.20;;;;;;;17.92;45.60;99745.75;4956917;29;20043;-66
2023/03/03 05:52:50;;;;;;;9.77;7.97;;;;;;;17.90;45.83;99745.81;4957234;29;20027;-66
2023/03/03 05:55:16;;;;;;;10.02;8.85;;;;;;;17.90;45.75;99745.81;4957105;29;20019;-65
2023/03/03 05:57:42;;;;;;;10.20;8.10;;;;;;;17.89;45.83;99744.09;4956790;29;20046;-66
2023/03/03 06:00:08;;;;;;;9.40;7.18;;;;;;;17.89;45.50;99741.47;4956788;29;20484;-66
2023/03/03 06:02:33;;;;;;;11.27;7.65;;;;;;;17.87;45.87;99748.56;4956995;29;20510;-66
2023/03/03 06:04:59;;;;;;;10.02;8.05;;;;;;;17.87;45.56;99745.94;4956909;29;20027;-66
2023/03/03 06:07:25;;;;;;;9.32;7.45;;;;;;;17.87;45.40;99745.09;4956679;29;20037;-66
2023/03/03 06:09:50;;;;;;;9.85;7.80;;;;;;;17.85;45.62;99753.06;4956705;29;20042;-66
2023/03/03 06:12:16;;;;;;;8.27;7.25;;;;;;;17.86;45.48;99746.88;4956801;29;20034;-66
2023/03/03 06:14:41;;;;;;;9.18;7.50;;;;;;;17.84;45.61;99752.19;4956641;29;20023;-66
2023/03/03 06:17:06;;;;;;;9.48;8.45;;;;;;;17.84;45.64;99752.19;4956786;29;20031;-66
2023/03/03 06:19:32;;;;;;;9.15;7.85;;;;;;;17.84;45.50;99746.06;4956957;29;20031;-65
2023/03/03 06:21:57;;;;;;;10.85;8.63;;;;;;;17.85;45.63;99755.72;4939573;29;20058;-66
2023/03/03 06:24:24;;;;;;;9.75;7.93;;;;;;;17.84;45.43;99756.63;4956726;29;20027;-66
2023/03/03 06:26:50;;;;;;;9.55;8.15;;;;;;;17.80;45.60;99760.31;4956432;29;20031;-66
2023/03/03 06:29:16;;;;;;;11.00;8.80;;;;;;;17.80;45.55;99762.97;4956160;29;20027;-66
2023/03/03 06:31:42;;;;;;;10.00;8.60;;;;;;;17.80;45.45;99760.31;4956668;29;20357;-66
2023/03/03 06:34:07;;;;;;;9.43;7.68;;;;;;;17.79;45.62;99763.91;4956495;29;20372;-67
2023/03/03 06:36:33;;;;;;;11.07;7.45;;;;;;;17.78;45.71;99763.03;4956406;29;20030;-66
2023/03/03 06:38:59;;;;;;;9.10;7.63;;;;;;;17.79;45.60;99769.16;4956354;29;20042;-65
2023/03/03 06:41:25;;;;;;;10.00;8.00;;;;;;;17.78;45.74;99772.75;4956119;29;20114;-67
2023/03/03 06:43:50;;;;;;;9.35;8.35;;;;;;;17.80;45.40;99778.81;4955981;29;20108;-65
2023/03/03 06:46:16;;;;;;;10.27;8.38;;;;;;;17.75;45.37;99767.56;4956288;29;20375;-67
2023/03/03 06:48:41;;;;;;;9.60;7.85;;;;;;;17.78;45.54;99772.75;4938833;29;20023;-67
2023/03/03 06:51:32;;;;;;;10.10;8.45;;;;;;;17.78;45.63;99772.75;4955366;28;20055;-65
2023/03/03 06:54:01;;;;;;;9.93;8.38;;;;;;;17.74;45.56;99771.16;4945153;29;20043;-66
2023/03/03 06:56:27;;;;;;;8.88;7.55;;;;;;;17.77;45.59;99776.31;4955552;29;20031;-66
2023/03/03 06:58:55;;;;;;;9.02;7.90;;;;;;;17.77;45.50;99776.31;4956036;29;20019;-66
2023/03/03 07:01:21;;;;;;;10.27;8.20;;;;;;;17.71;45.50;99773.00;4955886;29;20560;-66
2023/03/03 07:03:46;;;;;;;9.32;7.65;;;;;;;17.74;45.46;99787.84;4955880;29;20102;-67
2023/03/03 07:06:23;;;;;;;9.82;7.63;;;;;;;17.70;45.81;99781.84;4955745;29;20038;-67
2023/03/03 07:08:50;;;;;;;9.23;8.27;;;;;;;17.73;45.40;99788.78;4955540;29;20510;-67
2023/03/03 07:11:19;;;;;;;12.15;9.52;;;;;;;17.71;45.59;99782.69;4955377;29;20114;-65
2023/03/03 07:13:50;;;;;;;8.30;7.35;;;;;;;17.68;45.75;99783.69;4955856;29;20062;-67
2023/03/03 07:16:16;;;;;;;9.43;7.90;;;;;;;17.71;45.72;99782.69;4955585;29;20110;-66
2023/03/03 07:19:04;;;;;;;10.40;8.00;;;;;;;17.71;45.36;99795.88;4955750;29;20070;-67
2023/03/03 07:21:35;;;;;;;9.23;7.93;;;;;;;17.67;45.65;99791.69;4955662;29;20036;-67
2023/03/03 07:24:17;;;;;;;10.18;8.43;;;;;;;17.66;45.54;99801.38;4955291;29;20075;-67
2023/03/03 07:26:43;;;;;;;10.80;8.32;;;;;;;17.64;45.84;99797.06;4955096;29;20027;-66
2023/03/03 07:29:14;;;;;;;9.93;8.48;;;;;;;17.66;45.69;99800.50;4938037;29;20035;-67
2023/03/03 07:31:44;;;;;;;9.23;7.95;;;;;;;17.66;45.60;99804.00;4955256;29;20459;-66
2023/03/03 07:34:39;;;;;;;10.02;8.52;;;;;;;17.65;45.68;99799.66;4955351;29;20110;-66
2023/03/03 07:37:38;;;;;;;10.23;8.52;;;;;;;17.64;45.74;99808.50;4955206;29;20046;-65
2023/03/03 07:40:34;;;;;;;8.82;7.82;;;;;;;17.64;45.63;99816.41;4876933;29;20043;-66
2023/03/03 07:43:20;;;;;;;10.27;8.45;;;;;;;17.64;45.53;99811.13;4877368;29;20056;-65
2023/03/03 07:45:46;;;;;;;10.80;8.13;;;;;;;17.65;45.62;99814.63;4876761;29;20038;-66
2023/03/03 07:48:29;;;;;;;10.65;8.75;;;;;;;17.62;45.45;99815.59;4876981;29;20417;-66
2023/03/03 07:50:59;;;;;;;11.23;9.35;;;;;;;17.62;45.65;99826.16;4877081;29;20062;-65
2023/03/03 07:53:28;;;;;;;9.60;8.57;;;;;;;17.65;45.35;99830.44;4877271;29;20033;-65
2023/03/03 07:55:54;;;;;;;12.68;10.07;;;;;;;17.62;45.42;99823.53;4865547;29;20036;-67
2023/03/03 07:58:37;;;;;;;11.25;9.18;;;;;;;17.65;45.68;99820.78;4895665;29;20032;-66
2023/03/03 08:01:39;;;;;;;11.68;10.00;;;;;;;17.68;45.54;99815.34;4895499;29;20043;-67
2023/03/03 08:04:33;;;;;;;14.15;10.40;;;;;;;17.71;45.76;99815.22;4895549;29;20047;-65
2023/03/03 08:07:01;;;;;;;12.40;10.63;;;;;;;17.75;45.77;99809.81;4895601;29;20456;-65
2023/03/03 08:09:29;;;;;;;15.45;10.85;;;;;;;17.75;45.60;99820.38;4895076;29;20496;-65
2023/03/03 08:12:10;;;;;;;14.23;11.38;;;;;;;17.75;45.95;99815.97;4895306;29;20059;-66
2023/03/03 08:14:37;;;;;;;12.65;11.05;;;;;;;17.78;45.99;99814.97;4892797;29;20116;-66
2023/03/03 08:17:35;;;;;;;14.77;11.48;;;;;;;17.78;45.69;99815.81;4943494;29;20518;-65
2023/03/03 08:20:30;;;;;;;12.70;10.82;;;;;;;17.79;45.85;99817.56;4934141;29;20046;-67
2023/03/03 08:22:56;;;;;;;12.90;10.23;;;;;;;17.79;45.73;99817.56;4943936;29;20043;-66
2023/03/03 08:25:21;;;;;;;13.15;11.05;;;;;;;17.83;46.01;99813.00;4935123;29;20514;-66
2023/03/03 08:27:47;;;;;;;12.45;10.15;;;;;;;17.83;46.08;99818.28;4935005;29;20032;-66
2023/03/03 08:30:12;;;;;;;12.05;10.02;;;;;;;17.83;45.90;99813.84;4935089;29;20031;-66
2023/03/03 08:32:39;;;;;;;13.15;10.38;;;;;;;17.87;45.99;99825.13;4929996;29;20420;-66
2023/03/03 08:35:05;;;;;;;12.05;10.18;;;;;;;17.87;46.09;99825.13;4954056;29;20039;-65
2023/03/03 08:37:30;;;;;;;13.18;10.95;;;;;;;17.89;45.91;99833.88;4954118;29;20031;-66
2023/03/03 08:39:56;;;;;;;12.43;9.93;;;;;;;17.91;46.10;99837.28;4953733;29;20030;-66
2023/03/03 08:42:21;;;;;;;11.90;8.95;;;;;;;17.94;46.14;99831.88;4953983;29;20083;-66
2023/03/03 08:44:46;;;;;;;10.60;9.45;;;;;;;17.94;45.79;99839.81;4954173;29;20031;-66
2023/03/03 08:47:12;;;;;;;11.05;9.63;;;;;;;17.94;45.83;99842.44;4954133;29;20114;-66
2023/03/03 08:49:38;;;;;;;12.98;10.25;;;;;;;17.94;45.84;99847.72;4942531;29;20389;-66
2023/03/03 08:52:04;;;;;;;10.65;9.52;;;;;;;17.95;45.54;99849.44;4934922;29;20055;-66
2023/03/03 08:54:29;;;;;;;12.27;9.40;;;;;;;17.97;45.74;99847.59;4934472;29;20408;-66
2023/03/03 08:56:55;;;;;;;10.85;9.40;;;;;;;17.95;45.59;99849.44;4947263;29;20069;-65
2023/03/03 08:59:21;;;;;;;12.18;10.32;;;;;;;17.98;45.70;99851.94;4953866;29;20391;-65
2023/03/03 09:01:46;;;;;;;11.75;9.75;;;;;;;17.96;45.57;99840.59;4954047;29;20027;-66
2023/03/03 09:04:12;;;;;;;11.25;9.80;;;;;;;17.98;45.58;99844.03;4954061;29;20105;-65
2023/03/03 09:06:38;;;;;;;11.90;9.25;;;;;;;17.98;45.82;99849.31;4954023;29;20031;-66
2023/03/03 09:09:03;;;;;;;11.48;9.20;;;;;;;17.98;45.61;99856.38;4953300;29;20027;-66
2023/03/03 09:11:29;;;;;;;12.38;9.48;;;;;;;17.98;45.72;99853.75;4954053;29;20027;-66
2023/03/03 09:14:11;;;;;;;10.93;9.43;;;;;;;17.97;45.76;99852.88;4938539;29;20479;-66
2023/03/03 09:16:39;;;;;;;11.32;9.70;;;;;;;17.96;45.83;99848.53;4957623;29;20031;-65
2023/03/03 09:19:28;;;;;;;12.48;10.20;;;;;;;17.98;45.54;99844.03;4957526;29;20139;-66
2023/03/03 09:21:57;;;;;;;11.13;8.88;;;;;;;17.98;45.47;99849.31;4957278;29;20031;-66
2023/03/03 09:24:32;;;;;;;10.45;8.95;;;;;;;17.99;45.30;99855.44;4957667;29;20031;-65
2023/03/03 09:26:58;;;;;;;11.50;9.73;;;;;;;17.98;45.29;99851.94;4957375;29;20059;-66
2023/03/03 09:29:36;;;;;;;10.77;9.45;;;;;;;17.98;45.29;99854.59;4957682;29;20106;-66
2023/03/03 09:32:24;;;;;;;13.38;9.38;;;;;;;17.98;45.67;99849.31;4957471;29;20038;-66
2023/03/03 09:34:50;;;;;;;12.43;9.60;;;;;;;18.00;45.55;99856.31;4957549;29;20075;-66
2023/03/03 09:37:27;;;;;;;11.52;9.40;;;;;;;18.01;45.62;99847.47;4956915;29;20058;-65
2023/03/03 09:39:56;;;;;;;13.23;9.82;;;;;;;18.01;45.28;99850.13;4957370;29;20081;-67
2023/03/03 09:42:45;;;;;;;11.18;9.27;;;;;;;17.98;45.36;99844.03;4957215;29;20029;-67
2023/03/03 09:45:44;;;;;;;12.60;10.07;;;;;;;18.03;45.32;99845.63;4939894;29;20035;-66
2023/03/03 09:48:28;;;;;;;10.38;9.15;;;;;;;18.05;45.55;99849.03;4939826;29;20551;-66
2023/03/03 09:51:15;;;;;;;12.65;10.02;;;;;;;18.04;45.26;99852.59;4956747;29;20065;-66
2023/03/03 09:53:57;;;;;;;13.27;9.90;;;;;;;18.06;45.46;99856.09;4957258;29;20065;-66
2023/03/03 09:56:39;;;;;;;11.07;9.52;;;;;;;18.02;45.26;99854.47;4957050;29;20165;-66
2023/03/03 09:59:45;;;;;;;12.52;9.85;;;;;;;18.04;45.00;99857.88;4957360;29;20039;-67
2023/03/03 10:02:28;;;;;;;12.05;10.00;;;;;;;18.05;45.12;99864.88;4878964;29;20041;-66
2023/03/03 10:05:14;;;;;;;11.50;9.95;;;;;;;18.05;45.41;99855.19;4878817;29;20045;-67
2023/03/03 10:08:11;;;;;;;11.35;9.80;;;;;;;18.05;45.39;99855.19;4878820;29;20040;-67
2023/03/03 10:10:37;;;;;;;10.35;8.90;;;;;;;18.06;45.07;99856.09;4878404;29;20045;-65
2023/03/03 10:13:59;;;;;;;11.68;9.52;;;;;;;18.08;45.15;99859.53;4878334;29;20069;-67
2023/03/03 10:16:33;;;;;;;10.43;8.55;;;;;;;18.06;45.15;99858.75;4805047;29;20046;-66
2023/03/03 10:19:19;;;;;;;11.85;9.80;;;;;;;18.07;45.00;99857.81;4804729;29;20131;-66
2023/03/03 10:22:04;;;;;;;11.57;9.52;;;;;;;18.08;45.19;99855.09;4804849;29;20134;-67
2023/03/03 10:24:37;;;;;;;10.98;8.98;;;;;;;18.08;45.04;99856.88;4804585;29;20097;-66
2023/03/03 10:27:18;;;;;;;10.88;9.13;;;;;;;18.10;45.39;99852.38;4805295;29;20190;-65
2023/03/03 10:29:49;;;;;;;11.23;9.38;;;;;;;18.08;45.27;99862.16;4805069;29;20575;-66
2023/03/03 10:32:31;;;;;;;11.98;9.90;;;;;;;18.08;45.03;99859.53;4805230;29;20039;-66
2023/03/03 10:36:04;;;;;;;12.75;9.73;;;;;;;18.08;45.34;99864.81;4807113;29;20054;-66
2023/03/03 10:39:00;;;;;;;12.85;10.27;;;;;;;18.13;45.20;99864.59;4751234;30;20102;-66
2023/03/03 10:41:34;;;;;;;10.40;9.10;;;;;;;18.12;45.08;99861.13;4750128;30;20052;-64
2023/03/03 10:44:02;;;;;;;13.75;10.73;;;;;;;18.14;44.96;99864.53;4750493;30;20407;-66
2023/03/03 10:46:33;;;;;;;11.70;9.85;;;;;;;18.14;45.35;99858.38;4768227;29;20047;-67
2023/03/03 10:49:10;;;;;;;13.07;10.07;;;;;;;18.17;45.33;99855.63;4803946;29;20051;-66
2023/03/03 10:51:50;;;;;;;14.05;9.55;;;;;;;18.18;45.35;99860.84;4803178;29;20102;-67
2023/03/03 10:54:29;;;;;;;13.35;9.55;;;;;;;18.18;45.84;99854.69;4807738;29;20114;-66
2023/03/03 10:57:10;;;;;;;13.02;9.30;;;;;;;18.20;45.69;99864.28;4801869;29;20073;-67
2023/03/03 10:59:47;;;;;;;10.40;9.00;;;;;;;18.21;45.59;99865.97;4804092;29;20038;-68
2023/03/03 11:02:21;;;;;;;11.27;8.65;;;;;;;18.21;45.67;99863.34;4804056;29;20035;-66
2023/03/03 11:05:16;;;;;;;11.70;8.85;;;;;;;18.22;45.57;99851.84;4803208;29;20046;-67
2023/03/03 11:07:51;;;;;;;11.20;8.68;;;;;;;18.22;45.55;99846.56;4805863;29;20134;-67
2023/03/03 11:10:31;;;;;;;9.90;8.45;;;;;;;18.22;45.52;99849.22;4892535;29;20048;-66
2023/03/03 11:13:09;;;;;;;9.65;7.65;;;;;;;18.23;45.69;99853.59;4912410;29;20068;-68
2023/03/03 11:15:35;;;;;;;10.27;8.48;;;;;;;18.24;45.53;99842.09;4949585;29;20027;-66
2023/03/03 11:18:14;;;;;;;9.20;7.88;;;;;;;18.24;45.67;99855.31;4954173;29;20038;-66
2023/03/03 11:20:42;;;;;;;10.27;8.15;;;;;;;18.25;45.53;99849.09;4953776;29;20431;-66
2023/03/03 11:23:23;;;;;;;10.80;8.93;;;;;;;18.24;45.62;99844.72;4953762;29;20042;-66
2023/03/03 11:26:27;;;;;;;13.57;9.85;;;;;;;18.27;45.57;99848.16;4954771;29;20034;-66
2023/03/03 11:28:58;;;;;;;13.15;10.05;;;;;;;18.27;45.59;99842.88;4952879;29;20023;-65
2023/03/03 11:31:45;;;;;;;13.77;10.82;;;;;;;18.25;45.55;99843.81;4937586;29;20078;-67
2023/03/03 11:34:34;;;;;;;13.15;11.18;;;;;;;18.27;45.23;99837.59;4952402;29;20406;-65
2023/03/03 11:37:20;;;;;;;15.05;11.88;;;;;;;18.28;45.38;99844.59;4951021;28;20031;-66
2023/03/03 11:39:48;;;;;;;14.95;11.40;;;;;;;18.29;45.05;99846.28;4937115;29;20035;-66
2023/03/03 11:42:15;;;;;;;13.98;10.55;;;;;;;18.29;45.45;99841.00;4953891;29;20391;-66